sensor_id;sensor_type;location;lat;lon;timestamp;P1;durP1;ratioP1;P2;durP2;ratioP2
36441;SDS011;22470;50.824;16.284;2022-07-30T00:00:17;13.45;;;8.35;;
36441;SDS011;22470;50.824;16.284;2022-07-30T00:03:04;13.38;;;8.73;;
36441;SDS011;22470;50.824;16.284;2022-07-30T00:05:32;13.82;;;8.02;;
36441;SDS011;22470;50.824;16.284;2022-07-30T00:07:59;14.10;;;8.00;;
36441;SDS011;22470;50.824;16.284;2022-07-30T00:10:26;13.40;;;7.90;;
36441;SDS011;22470;50.824;16.284;2022-07-30T00:12:54;13.85;;;7.75;;
36441;SDS011;22470;50.824;16.284;2022-07-30T00:15:21;11.15;;;7.43;;
36441;SDS011;22470;50.824;16.284;2022-07-30T00:17:48;12.23;;;7.03;;
36441;SDS011;22470;50.824;16.284;2022-07-30T00:20:16;12.55;;;8.02;;
36441;SDS011;22470;50.824;16.284;2022-07-30T00:22:44;10.75;;;6.85;;
36441;SDS011;22470;50.824;16.284;2022-07-30T00:25:11;10.77;;;7.90;;
36441;SDS011;22470;50.824;16.284;2022-07-30T00:27:38;11.43;;;7.53;;
36441;SDS011;22470;50.824;16.284;2022-07-30T00:30:06;11.77;;;7.05;;
36441;SDS011;22470;50.824;16.284;2022-07-30T00:32:33;12.07;;;7.68;;
36441;SDS011;22470;50.824;16.284;2022-07-30T00:35:00;13.45;;;7.57;;
36441;SDS011;22470;50.824;16.284;2022-07-30T00:37:28;11.73;;;8.10;;
36441;SDS011;22470;50.824;16.284;2022-07-30T00:39:55;12.75;;;7.78;;
36441;SDS011;22470;50.824;16.284;2022-07-30T00:42:22;11.65;;;8.13;;
36441;SDS011;22470;50.824;16.284;2022-07-30T00:44:53;12.32;;;8.30;;
36441;SDS011;22470;50.824;16.284;2022-07-30T00:47:20;11.77;;;7.78;;
36441;SDS011;22470;50.824;16.284;2022-07-30T00:49:48;12.27;;;7.90;;
36441;SDS011;22470;50.824;16.284;2022-07-30T00:52:15;13.93;;;8.50;;
36441;SDS011;22470;50.824;16.284;2022-07-30T00:54:42;15.10;;;8.20;;
36441;SDS011;22470;50.824;16.284;2022-07-30T00:57:09;13.25;;;8.30;;
36441;SDS011;22470;50.824;16.284;2022-07-30T00:59:36;13.15;;;8.68;;
36441;SDS011;22470;50.824;16.284;2022-07-30T01:02:03;13.15;;;7.93;;
36441;SDS011;22470;50.824;16.284;2022-07-30T01:04:31;14.15;;;8.50;;
36441;SDS011;22470;50.824;16.284;2022-07-30T01:06:58;13.27;;;8.05;;
36441;SDS011;22470;50.824;16.284;2022-07-30T01:09:25;12.73;;;7.95;;
36441;SDS011;22470;50.824;16.284;2022-07-30T01:11:53;14.02;;;8.52;;
36441;SDS011;22470;50.824;16.284;2022-07-30T01:14:20;11.65;;;7.57;;
36441;SDS011;22470;50.824;16.284;2022-07-30T01:16:48;13.48;;;8.55;;
36441;SDS011;22470;50.824;16.284;2022-07-30T01:19:19;13.82;;;8.35;;
36441;SDS011;22470;50.824;16.284;2022-07-30T01:21:50;11.70;;;8.05;;
36441;SDS011;22470;50.824;16.284;2022-07-30T01:24:34;12.98;;;7.47;;
36441;SDS011;22470;50.824;16.284;2022-07-30T01:27:04;11.23;;;8.00;;
36441;SDS011;22470;50.824;16.284;2022-07-30T01:29:32;12.60;;;7.63;;
36441;SDS011;22470;50.824;16.284;2022-07-30T01:32:01;15.55;;;8.60;;
36441;SDS011;22470;50.824;16.284;2022-07-30T01:34:33;11.88;;;8.23;;
36441;SDS011;22470;50.824;16.284;2022-07-30T01:37:02;13.70;;;8.55;;
36441;SDS011;22470;50.824;16.284;2022-07-30T01:39:30;14.02;;;8.70;;
36441;SDS011;22470;50.824;16.284;2022-07-30T01:41:58;13.88;;;8.68;;
36441;SDS011;22470;50.824;16.284;2022-07-30T01:44:26;14.38;;;8.95;;
36441;SDS011;22470;50.824;16.284;2022-07-30T01:46:54;14.25;;;8.80;;
36441;SDS011;22470;50.824;16.284;2022-07-30T01:49:21;13.57;;;9.13;;
36441;SDS011;22470;50.824;16.284;2022-07-30T01:51:51;12.45;;;9.13;;
36441;SDS011;22470;50.824;16.284;2022-07-30T01:54:19;13.82;;;8.60;;
36441;SDS011;22470;50.824;16.284;2022-07-30T01:56:49;12.82;;;8.90;;
36441;SDS011;22470;50.824;16.284;2022-07-30T01:59:19;12.70;;;8.68;;
36441;SDS011;22470;50.824;16.284;2022-07-30T02:01:47;12.98;;;9.18;;
36441;SDS011;22470;50.824;16.284;2022-07-30T02:04:14;14.05;;;9.70;;
36441;SDS011;22470;50.824;16.284;2022-07-30T02:06:45;15.02;;;9.63;;
36441;SDS011;22470;50.824;16.284;2022-07-30T02:09:20;15.32;;;9.23;;
36441;SDS011;22470;50.824;16.284;2022-07-30T02:11:49;19.05;;;9.55;;
36441;SDS011;22470;50.824;16.284;2022-07-30T02:14:21;13.98;;;8.63;;
36441;SDS011;22470;50.824;16.284;2022-07-30T02:16:52;14.40;;;9.10;;
36441;SDS011;22470;50.824;16.284;2022-07-30T02:19:20;13.55;;;8.93;;
36441;SDS011;22470;50.824;16.284;2022-07-30T02:22:08;13.60;;;8.88;;
36441;SDS011;22470;50.824;16.284;2022-07-30T02:24:40;16.38;;;9.88;;
36441;SDS011;22470;50.824;16.284;2022-07-30T02:27:13;12.85;;;8.95;;
36441;SDS011;22470;50.824;16.284;2022-07-30T02:29:43;13.85;;;9.27;;
36441;SDS011;22470;50.824;16.284;2022-07-30T02:32:13;13.30;;;8.93;;
36441;SDS011;22470;50.824;16.284;2022-07-30T02:34:45;14.45;;;8.88;;
36441;SDS011;22470;50.824;16.284;2022-07-30T02:37:18;15.43;;;9.18;;
36441;SDS011;22470;50.824;16.284;2022-07-30T02:40:07;15.45;;;10.45;;
36441;SDS011;22470;50.824;16.284;2022-07-30T02:42:36;13.65;;;9.25;;
36441;SDS011;22470;50.824;16.284;2022-07-30T02:45:04;13.70;;;9.02;;
36441;SDS011;22470;50.824;16.284;2022-07-30T02:47:32;13.68;;;9.43;;
36441;SDS011;22470;50.824;16.284;2022-07-30T02:50:01;16.15;;;9.80;;
36441;SDS011;22470;50.824;16.284;2022-07-30T02:52:30;12.95;;;9.18;;
36441;SDS011;22470;50.824;16.284;2022-07-30T02:54:58;13.02;;;9.25;;
36441;SDS011;22470;50.824;16.284;2022-07-30T02:57:28;14.85;;;10.75;;
36441;SDS011;22470;50.824;16.284;2022-07-30T02:59:56;15.95;;;10.52;;
36441;SDS011;22470;50.824;16.284;2022-07-30T03:02:25;14.05;;;9.20;;
36441;SDS011;22470;50.824;16.284;2022-07-30T03:04:56;14.63;;;8.85;;
36441;SDS011;22470;50.824;16.284;2022-07-30T03:07:24;13.30;;;9.25;;
36441;SDS011;22470;50.824;16.284;2022-07-30T03:09:53;14.70;;;8.05;;
36441;SDS011;22470;50.824;16.284;2022-07-30T03:12:22;15.35;;;8.38;;
36441;SDS011;22470;50.824;16.284;2022-07-30T03:14:51;14.63;;;7.85;;
36441;SDS011;22470;50.824;16.284;2022-07-30T03:17:18;12.80;;;8.90;;
36441;SDS011;22470;50.824;16.284;2022-07-30T03:19:48;14.60;;;8.95;;
36441;SDS011;22470;50.824;16.284;2022-07-30T03:22:16;14.93;;;8.93;;
36441;SDS011;22470;50.824;16.284;2022-07-30T03:24:45;14.57;;;9.25;;
36441;SDS011;22470;50.824;16.284;2022-07-30T03:27:15;13.80;;;9.48;;
36441;SDS011;22470;50.824;16.284;2022-07-30T03:29:42;15.75;;;9.70;;
36441;SDS011;22470;50.824;16.284;2022-07-30T03:32:10;13.32;;;9.50;;
36441;SDS011;22470;50.824;16.284;2022-07-30T03:34:40;13.68;;;9.25;;
36441;SDS011;22470;50.824;16.284;2022-07-30T03:37:09;14.95;;;9.20;;
36441;SDS011;22470;50.824;16.284;2022-07-30T03:39:36;15.55;;;9.35;;
36441;SDS011;22470;50.824;16.284;2022-07-30T03:42:06;14.75;;;9.45;;
36441;SDS011;22470;50.824;16.284;2022-07-30T03:44:34;14.10;;;9.23;;
36441;SDS011;22470;50.824;16.284;2022-07-30T03:47:01;16.23;;;9.50;;
36441;SDS011;22470;50.824;16.284;2022-07-30T03:49:31;15.75;;;9.52;;
36441;SDS011;22470;50.824;16.284;2022-07-30T03:52:00;14.25;;;8.98;;
36441;SDS011;22470;50.824;16.284;2022-07-30T03:54:27;16.20;;;9.40;;
36441;SDS011;22470;50.824;16.284;2022-07-30T03:56:58;15.32;;;10.20;;
36441;SDS011;22470;50.824;16.284;2022-07-30T03:59:27;16.75;;;11.27;;
36441;SDS011;22470;50.824;16.284;2022-07-30T04:01:58;18.70;;;11.48;;
36441;SDS011;22470;50.824;16.284;2022-07-30T04:04:32;14.40;;;11.20;;
36441;SDS011;22470;50.824;16.284;2022-07-30T04:07:00;18.70;;;11.50;;
36441;SDS011;22470;50.824;16.284;2022-07-30T04:09:27;16.27;;;11.00;;
36441;SDS011;22470;50.824;16.284;2022-07-30T04:11:55;17.33;;;12.05;;
36441;SDS011;22470;50.824;16.284;2022-07-30T04:14:22;19.83;;;11.35;;
36441;SDS011;22470;50.824;16.284;2022-07-30T04:16:50;19.88;;;12.45;;
36441;SDS011;22470;50.824;16.284;2022-07-30T04:19:34;16.35;;;12.30;;
36441;SDS011;22470;50.824;16.284;2022-07-30T04:22:05;16.33;;;11.68;;
36441;SDS011;22470;50.824;16.284;2022-07-30T04:24:34;20.80;;;12.93;;
36441;SDS011;22470;50.824;16.284;2022-07-30T04:27:04;19.08;;;12.30;;
36441;SDS011;22470;50.824;16.284;2022-07-30T04:29:31;16.98;;;12.50;;
36441;SDS011;22470;50.824;16.284;2022-07-30T04:32:00;18.50;;;12.63;;
36441;SDS011;22470;50.824;16.284;2022-07-30T04:34:27;17.95;;;13.07;;
36441;SDS011;22470;50.824;16.284;2022-07-30T04:36:54;18.52;;;12.25;;
36441;SDS011;22470;50.824;16.284;2022-07-30T04:39:21;20.10;;;12.25;;
36441;SDS011;22470;50.824;16.284;2022-07-30T04:41:49;20.13;;;13.75;;
36441;SDS011;22470;50.824;16.284;2022-07-30T04:44:19;17.40;;;13.00;;
36441;SDS011;22470;50.824;16.284;2022-07-30T04:46:46;18.92;;;12.48;;
36441;SDS011;22470;50.824;16.284;2022-07-30T04:49:14;20.02;;;12.93;;
36441;SDS011;22470;50.824;16.284;2022-07-30T04:51:43;19.25;;;12.10;;
36441;SDS011;22470;50.824;16.284;2022-07-30T04:54:12;17.85;;;11.55;;
36441;SDS011;22470;50.824;16.284;2022-07-30T04:56:42;18.08;;;12.93;;
36441;SDS011;22470;50.824;16.284;2022-07-30T04:59:20;21.73;;;13.20;;
36441;SDS011;22470;50.824;16.284;2022-07-30T05:01:50;18.98;;;12.85;;
36441;SDS011;22470;50.824;16.284;2022-07-30T05:04:19;19.02;;;13.10;;
36441;SDS011;22470;50.824;16.284;2022-07-30T05:06:49;16.95;;;12.35;;
36441;SDS011;22470;50.824;16.284;2022-07-30T05:09:17;19.98;;;12.98;;
36441;SDS011;22470;50.824;16.284;2022-07-30T05:11:51;19.25;;;12.38;;
36441;SDS011;22470;50.824;16.284;2022-07-30T05:14:20;18.27;;;12.88;;
36441;SDS011;22470;50.824;16.284;2022-07-30T05:16:49;19.50;;;13.10;;
36441;SDS011;22470;50.824;16.284;2022-07-30T05:19:17;23.92;;;13.52;;
36441;SDS011;22470;50.824;16.284;2022-07-30T05:21:45;18.88;;;14.32;;
36441;SDS011;22470;50.824;16.284;2022-07-30T05:24:13;17.05;;;12.43;;
36441;SDS011;22470;50.824;16.284;2022-07-30T05:26:40;18.98;;;13.25;;
36441;SDS011;22470;50.824;16.284;2022-07-30T05:29:08;19.40;;;11.98;;
36441;SDS011;22470;50.824;16.284;2022-07-30T05:31:45;19.50;;;12.32;;
36441;SDS011;22470;50.824;16.284;2022-07-30T05:34:12;18.40;;;12.93;;
36441;SDS011;22470;50.824;16.284;2022-07-30T05:36:39;19.40;;;12.02;;
36441;SDS011;22470;50.824;16.284;2022-07-30T05:39:06;22.13;;;13.32;;
36441;SDS011;22470;50.824;16.284;2022-07-30T05:41:34;17.77;;;13.38;;
36441;SDS011;22470;50.824;16.284;2022-07-30T05:44:01;22.65;;;14.48;;
36441;SDS011;22470;50.824;16.284;2022-07-30T05:46:28;18.33;;;12.65;;
36441;SDS011;22470;50.824;16.284;2022-07-30T05:48:55;22.10;;;14.27;;
36441;SDS011;22470;50.824;16.284;2022-07-30T05:51:22;20.45;;;12.93;;
36441;SDS011;22470;50.824;16.284;2022-07-30T05:53:49;19.13;;;14.32;;
36441;SDS011;22470;50.824;16.284;2022-07-30T05:56:17;22.80;;;14.13;;
36441;SDS011;22470;50.824;16.284;2022-07-30T05:58:44;23.88;;;15.63;;
36441;SDS011;22470;50.824;16.284;2022-07-30T06:01:11;26.13;;;18.55;;
36441;SDS011;22470;50.824;16.284;2022-07-30T06:03:38;27.27;;;18.02;;
36441;SDS011;22470;50.824;16.284;2022-07-30T06:06:05;23.98;;;18.52;;
36441;SDS011;22470;50.824;16.284;2022-07-30T06:08:33;23.80;;;16.67;;
36441;SDS011;22470;50.824;16.284;2022-07-30T06:11:01;24.27;;;16.50;;
36441;SDS011;22470;50.824;16.284;2022-07-30T06:13:28;25.40;;;16.52;;
36441;SDS011;22470;50.824;16.284;2022-07-30T06:15:55;25.98;;;17.77;;
36441;SDS011;22470;50.824;16.284;2022-07-30T06:18:23;24.05;;;15.88;;
36441;SDS011;22470;50.824;16.284;2022-07-30T06:20:50;25.25;;;15.88;;
36441;SDS011;22470;50.824;16.284;2022-07-30T06:23:18;22.80;;;15.23;;
36441;SDS011;22470;50.824;16.284;2022-07-30T06:25:47;21.10;;;14.30;;
36441;SDS011;22470;50.824;16.284;2022-07-30T06:28:16;21.00;;;15.02;;
36441;SDS011;22470;50.824;16.284;2022-07-30T06:31:03;22.55;;;14.65;;
36441;SDS011;22470;50.824;16.284;2022-07-30T06:33:31;22.58;;;16.88;;
36441;SDS011;22470;50.824;16.284;2022-07-30T06:35:58;24.30;;;14.90;;
36441;SDS011;22470;50.824;16.284;2022-07-30T06:38:26;19.95;;;14.13;;
36441;SDS011;22470;50.824;16.284;2022-07-30T06:40:53;17.80;;;13.13;;
36441;SDS011;22470;50.824;16.284;2022-07-30T06:43:27;17.75;;;12.27;;
36441;SDS011;22470;50.824;16.284;2022-07-30T06:45:55;19.13;;;11.88;;
36441;SDS011;22470;50.824;16.284;2022-07-30T06:48:22;16.77;;;10.38;;
36441;SDS011;22470;50.824;16.284;2022-07-30T06:50:49;16.08;;;10.52;;
36441;SDS011;22470;50.824;16.284;2022-07-30T06:53:16;16.88;;;9.43;;
36441;SDS011;22470;50.824;16.284;2022-07-30T06:55:44;18.92;;;10.02;;
36441;SDS011;22470;50.824;16.284;2022-07-30T06:58:11;18.85;;;10.20;;
36441;SDS011;22470;50.824;16.284;2022-07-30T07:00:38;16.92;;;10.13;;
36441;SDS011;22470;50.824;16.284;2022-07-30T07:03:05;18.65;;;11.02;;
36441;SDS011;22470;50.824;16.284;2022-07-30T07:05:37;15.55;;;9.57;;
36441;SDS011;22470;50.824;16.284;2022-07-30T07:08:04;15.25;;;9.52;;
36441;SDS011;22470;50.824;16.284;2022-07-30T07:10:32;13.55;;;9.00;;
36441;SDS011;22470;50.824;16.284;2022-07-30T07:12:59;21.80;;;14.90;;
36441;SDS011;22470;50.824;16.284;2022-07-30T07:15:26;15.45;;;9.07;;
36441;SDS011;22470;50.824;16.284;2022-07-30T07:18:02;13.52;;;8.75;;
36441;SDS011;22470;50.824;16.284;2022-07-30T07:20:30;13.98;;;8.88;;
36441;SDS011;22470;50.824;16.284;2022-07-30T07:23:01;14.57;;;8.75;;
36441;SDS011;22470;50.824;16.284;2022-07-30T07:25:35;14.75;;;8.85;;
36441;SDS011;22470;50.824;16.284;2022-07-30T07:28:02;14.15;;;9.18;;
36441;SDS011;22470;50.824;16.284;2022-07-30T07:30:41;13.77;;;8.32;;
36441;SDS011;22470;50.824;16.284;2022-07-30T07:33:09;13.50;;;9.15;;
36441;SDS011;22470;50.824;16.284;2022-07-30T07:35:36;11.90;;;7.38;;
36441;SDS011;22470;50.824;16.284;2022-07-30T07:38:16;15.15;;;7.63;;
36441;SDS011;22470;50.824;16.284;2022-07-30T07:40:44;17.33;;;8.05;;
36441;SDS011;22470;50.824;16.284;2022-07-30T07:43:11;17.48;;;9.13;;
36441;SDS011;22470;50.824;16.284;2022-07-30T07:45:40;12.75;;;8.77;;
36441;SDS011;22470;50.824;16.284;2022-07-30T07:48:08;15.15;;;8.50;;
36441;SDS011;22470;50.824;16.284;2022-07-30T07:50:35;16.52;;;8.32;;
36441;SDS011;22470;50.824;16.284;2022-07-30T07:53:03;15.27;;;8.05;;
36441;SDS011;22470;50.824;16.284;2022-07-30T07:55:30;13.93;;;7.72;;
36441;SDS011;22470;50.824;16.284;2022-07-30T07:57:59;12.05;;;7.97;;
36441;SDS011;22470;50.824;16.284;2022-07-30T08:00:27;13.32;;;8.48;;
36441;SDS011;22470;50.824;16.284;2022-07-30T08:02:54;13.38;;;8.23;;
36441;SDS011;22470;50.824;16.284;2022-07-30T08:05:22;15.00;;;8.32;;
36441;SDS011;22470;50.824;16.284;2022-07-30T08:07:49;14.13;;;8.90;;
36441;SDS011;22470;50.824;16.284;2022-07-30T08:10:17;11.23;;;6.82;;
36441;SDS011;22470;50.824;16.284;2022-07-30T08:12:44;13.05;;;7.63;;
36441;SDS011;22470;50.824;16.284;2022-07-30T08:15:12;11.85;;;6.47;;
36441;SDS011;22470;50.824;16.284;2022-07-30T08:17:43;12.98;;;7.22;;
36441;SDS011;22470;50.824;16.284;2022-07-30T08:20:11;10.55;;;6.60;;
36441;SDS011;22470;50.824;16.284;2022-07-30T08:22:40;13.43;;;6.88;;
36441;SDS011;22470;50.824;16.284;2022-07-30T08:25:08;12.95;;;7.50;;
36441;SDS011;22470;50.824;16.284;2022-07-30T08:27:35;10.75;;;6.97;;
36441;SDS011;22470;50.824;16.284;2022-07-30T08:30:06;14.07;;;8.10;;
36441;SDS011;22470;50.824;16.284;2022-07-30T08:32:34;12.25;;;6.78;;
36441;SDS011;22470;50.824;16.284;2022-07-30T08:35:02;11.45;;;6.00;;
36441;SDS011;22470;50.824;16.284;2022-07-30T08:37:31;12.23;;;6.30;;
36441;SDS011;22470;50.824;16.284;2022-07-30T08:39:58;14.30;;;8.23;;
36441;SDS011;22470;50.824;16.284;2022-07-30T08:42:25;10.90;;;6.03;;
36441;SDS011;22470;50.824;16.284;2022-07-30T08:44:53;9.52;;;5.65;;
36441;SDS011;22470;50.824;16.284;2022-07-30T08:47:22;10.88;;;5.43;;
36441;SDS011;22470;50.824;16.284;2022-07-30T08:49:58;11.07;;;6.00;;
36441;SDS011;22470;50.824;16.284;2022-07-30T08:52:27;10.43;;;5.65;;
36441;SDS011;22470;50.824;16.284;2022-07-30T08:54:55;9.18;;;5.47;;
36441;SDS011;22470;50.824;16.284;2022-07-30T08:57:23;9.25;;;5.68;;
36441;SDS011;22470;50.824;16.284;2022-07-30T08:59:51;11.38;;;5.35;;
36441;SDS011;22470;50.824;16.284;2022-07-30T09:02:29;10.10;;;5.88;;
36441;SDS011;22470;50.824;16.284;2022-07-30T09:04:57;8.88;;;5.70;;
36441;SDS011;22470;50.824;16.284;2022-07-30T09:07:24;8.75;;;5.43;;
36441;SDS011;22470;50.824;16.284;2022-07-30T09:09:51;8.57;;;5.55;;
36441;SDS011;22470;50.824;16.284;2022-07-30T09:12:31;9.25;;;5.28;;
36441;SDS011;22470;50.824;16.284;2022-07-30T09:17:47;11.05;;;5.72;;
36441;SDS011;22470;50.824;16.284;2022-07-30T09:20:21;7.70;;;5.10;;
36441;SDS011;22470;50.824;16.284;2022-07-30T09:22:54;10.07;;;5.50;;
36441;SDS011;22470;50.824;16.284;2022-07-30T09:28:27;8.30;;;5.45;;
36441;SDS011;22470;50.824;16.284;2022-07-30T09:30:56;8.40;;;5.13;;
36441;SDS011;22470;50.824;16.284;2022-07-30T09:36:06;10.55;;;5.45;;
36441;SDS011;22470;50.824;16.284;2022-07-30T09:38:43;8.70;;;5.10;;
36441;SDS011;22470;50.824;16.284;2022-07-30T09:41:15;9.80;;;5.53;;
36441;SDS011;22470;50.824;16.284;2022-07-30T09:44:04;7.03;;;4.70;;
36441;SDS011;22470;50.824;16.284;2022-07-30T09:46:41;9.00;;;5.43;;
36441;SDS011;22470;50.824;16.284;2022-07-30T09:49:14;8.43;;;5.40;;
36441;SDS011;22470;50.824;16.284;2022-07-30T09:51:42;8.77;;;5.55;;
36441;SDS011;22470;50.824;16.284;2022-07-30T09:54:46;8.48;;;5.18;;
36441;SDS011;22470;50.824;16.284;2022-07-30T09:57:18;9.90;;;5.78;;
36441;SDS011;22470;50.824;16.284;2022-07-30T09:59:53;9.07;;;5.70;;
36441;SDS011;22470;50.824;16.284;2022-07-30T10:02:31;7.55;;;5.35;;
36441;SDS011;22470;50.824;16.284;2022-07-30T10:05:09;9.80;;;5.90;;
36441;SDS011;22470;50.824;16.284;2022-07-30T10:07:57;10.85;;;6.25;;
36441;SDS011;22470;50.824;16.284;2022-07-30T10:10:27;9.60;;;5.93;;
36441;SDS011;22470;50.824;16.284;2022-07-30T10:12:58;10.63;;;5.75;;
36441;SDS011;22470;50.824;16.284;2022-07-30T10:15:27;9.32;;;5.82;;
36441;SDS011;22470;50.824;16.284;2022-07-30T10:17:58;10.80;;;5.88;;
36441;SDS011;22470;50.824;16.284;2022-07-30T10:20:27;8.80;;;5.82;;
36441;SDS011;22470;50.824;16.284;2022-07-30T10:22:55;8.15;;;5.60;;
36441;SDS011;22470;50.824;16.284;2022-07-30T10:25:23;9.38;;;5.47;;
36441;SDS011;22470;50.824;16.284;2022-07-30T10:27:53;8.57;;;5.15;;
36441;SDS011;22470;50.824;16.284;2022-07-30T10:30:24;9.60;;;5.88;;
36441;SDS011;22470;50.824;16.284;2022-07-30T10:32:55;8.35;;;5.72;;
36441;SDS011;22470;50.824;16.284;2022-07-30T10:35:23;9.07;;;5.57;;
36441;SDS011;22470;50.824;16.284;2022-07-30T10:38:06;7.78;;;5.07;;
36441;SDS011;22470;50.824;16.284;2022-07-30T10:40:56;8.20;;;5.00;;
36441;SDS011;22470;50.824;16.284;2022-07-30T10:48:48;8.82;;;4.50;;
36441;SDS011;22470;50.824;16.284;2022-07-30T10:51:16;7.25;;;4.75;;
36441;SDS011;22470;50.824;16.284;2022-07-30T10:54:00;6.95;;;4.65;;
36441;SDS011;22470;50.824;16.284;2022-07-30T10:56:27;5.97;;;4.32;;
36441;SDS011;22470;50.824;16.284;2022-07-30T10:59:28;6.78;;;4.60;;
36441;SDS011;22470;50.824;16.284;2022-07-30T11:04:25;6.03;;;4.40;;
36441;SDS011;22470;50.824;16.284;2022-07-30T11:07:41;6.63;;;4.53;;
36441;SDS011;22470;50.824;16.284;2022-07-30T11:09:52;6.00;;;4.20;;
36441;SDS011;22470;50.824;16.284;2022-07-30T11:15:11;6.68;;;4.80;;
36441;SDS011;22470;50.824;16.284;2022-07-30T11:20:30;7.88;;;5.05;;
36441;SDS011;22470;50.824;16.284;2022-07-30T11:23:34;6.30;;;4.60;;
36441;SDS011;22470;50.824;16.284;2022-07-30T11:26:02;6.70;;;4.50;;
36441;SDS011;22470;50.824;16.284;2022-07-30T11:28:43;7.70;;;4.75;;
36441;SDS011;22470;50.824;16.284;2022-07-30T11:31:25;6.90;;;4.95;;
36441;SDS011;22470;50.824;16.284;2022-07-30T11:44:49;8.43;;;4.82;;
36441;SDS011;22470;50.824;16.284;2022-07-30T11:47:17;7.30;;;5.03;;
36441;SDS011;22470;50.824;16.284;2022-07-30T11:49:44;7.78;;;4.65;;
36441;SDS011;22470;50.824;16.284;2022-07-30T11:52:12;9.52;;;6.07;;
36441;SDS011;22470;50.824;16.284;2022-07-30T11:54:54;9.07;;;5.68;;
36441;SDS011;22470;50.824;16.284;2022-07-30T11:57:37;7.85;;;5.70;;
36441;SDS011;22470;50.824;16.284;2022-07-30T12:00:05;10.18;;;6.55;;
36441;SDS011;22470;50.824;16.284;2022-07-30T12:02:34;9.75;;;6.35;;
36441;SDS011;22470;50.824;16.284;2022-07-30T12:05:01;9.98;;;6.85;;
36441;SDS011;22470;50.824;16.284;2022-07-30T12:07:28;9.98;;;6.53;;
36441;SDS011;22470;50.824;16.284;2022-07-30T12:13:09;10.98;;;6.90;;
36441;SDS011;22470;50.824;16.284;2022-07-30T12:15:43;9.70;;;6.55;;
36441;SDS011;22470;50.824;16.284;2022-07-30T12:18:27;9.60;;;6.80;;
36441;SDS011;22470;50.824;16.284;2022-07-30T12:20:57;9.48;;;6.90;;
36441;SDS011;22470;50.824;16.284;2022-07-30T12:23:34;12.50;;;7.70;;
36441;SDS011;22470;50.824;16.284;2022-07-30T12:26:02;10.07;;;6.35;;
36441;SDS011;22470;50.824;16.284;2022-07-30T12:28:31;10.75;;;6.25;;
36441;SDS011;22470;50.824;16.284;2022-07-30T12:30:59;9.13;;;6.05;;
36441;SDS011;22470;50.824;16.284;2022-07-30T12:33:27;8.38;;;5.63;;
36441;SDS011;22470;50.824;16.284;2022-07-30T12:35:55;8.13;;;5.05;;
36441;SDS011;22470;50.824;16.284;2022-07-30T12:38:25;7.13;;;4.38;;
36441;SDS011;22470;50.824;16.284;2022-07-30T12:46:15;7.75;;;4.43;;
36441;SDS011;22470;50.824;16.284;2022-07-30T12:48:53;7.67;;;4.30;;
36441;SDS011;22470;50.824;16.284;2022-07-30T12:51:49;6.00;;;3.80;;
36441;SDS011;22470;50.824;16.284;2022-07-30T12:54:25;8.43;;;4.05;;
36441;SDS011;22470;50.824;16.284;2022-07-30T12:57:01;5.00;;;3.63;;
36441;SDS011;22470;50.824;16.284;2022-07-30T12:59:31;6.43;;;3.70;;
36441;SDS011;22470;50.824;16.284;2022-07-30T13:01:59;5.65;;;3.35;;
36441;SDS011;22470;50.824;16.284;2022-07-30T13:04:26;5.25;;;3.33;;
36441;SDS011;22470;50.824;16.284;2022-07-30T13:09:31;5.57;;;3.22;;
36441;SDS011;22470;50.824;16.284;2022-07-30T13:11:58;5.95;;;3.72;;
36441;SDS011;22470;50.824;16.284;2022-07-30T13:14:25;5.68;;;3.42;;
36441;SDS011;22470;50.824;16.284;2022-07-30T13:16:53;6.65;;;3.72;;
36441;SDS011;22470;50.824;16.284;2022-07-30T13:19:21;9.20;;;4.78;;
36441;SDS011;22470;50.824;16.284;2022-07-30T13:21:48;10.80;;;6.35;;
36441;SDS011;22470;50.824;16.284;2022-07-30T13:24:16;6.72;;;4.22;;
36441;SDS011;22470;50.824;16.284;2022-07-30T13:26:44;7.47;;;4.38;;
36441;SDS011;22470;50.824;16.284;2022-07-30T13:29:12;9.65;;;5.18;;
36441;SDS011;22470;50.824;16.284;2022-07-30T13:31:39;9.38;;;5.25;;
36441;SDS011;22470;50.824;16.284;2022-07-30T13:34:09;8.70;;;5.32;;
36441;SDS011;22470;50.824;16.284;2022-07-30T13:36:36;9.20;;;5.32;;
36441;SDS011;22470;50.824;16.284;2022-07-30T13:39:04;9.60;;;6.10;;
36441;SDS011;22470;50.824;16.284;2022-07-30T13:41:32;12.38;;;7.70;;
36441;SDS011;22470;50.824;16.284;2022-07-30T13:44:00;15.93;;;9.57;;
36441;SDS011;22470;50.824;16.284;2022-07-30T13:46:27;15.30;;;9.85;;
36441;SDS011;22470;50.824;16.284;2022-07-30T13:48:55;9.85;;;6.25;;
36441;SDS011;22470;50.824;16.284;2022-07-30T13:51:22;9.98;;;6.15;;
36441;SDS011;22470;50.824;16.284;2022-07-30T13:53:50;9.30;;;6.10;;
36441;SDS011;22470;50.824;16.284;2022-07-30T13:56:17;9.65;;;6.32;;
36441;SDS011;22470;50.824;16.284;2022-07-30T13:58:45;10.15;;;5.65;;
36441;SDS011;22470;50.824;16.284;2022-07-30T14:01:13;10.57;;;6.57;;
36441;SDS011;22470;50.824;16.284;2022-07-30T14:03:43;8.95;;;6.20;;
36441;SDS011;22470;50.824;16.284;2022-07-30T14:06:17;9.05;;;5.80;;
36441;SDS011;22470;50.824;16.284;2022-07-30T14:08:44;8.25;;;5.53;;
36441;SDS011;22470;50.824;16.284;2022-07-30T14:11:12;7.88;;;5.47;;
36441;SDS011;22470;50.824;16.284;2022-07-30T14:13:40;9.88;;;6.18;;
36441;SDS011;22470;50.824;16.284;2022-07-30T14:16:07;8.48;;;5.50;;
36441;SDS011;22470;50.824;16.284;2022-07-30T14:18:54;10.75;;;6.72;;
36441;SDS011;22470;50.824;16.284;2022-07-30T14:21:22;10.75;;;6.38;;
36441;SDS011;22470;50.824;16.284;2022-07-30T14:23:49;10.35;;;7.07;;
36441;SDS011;22470;50.824;16.284;2022-07-30T14:26:16;11.52;;;7.18;;
36441;SDS011;22470;50.824;16.284;2022-07-30T14:28:43;10.68;;;6.38;;
36441;SDS011;22470;50.824;16.284;2022-07-30T14:31:10;11.32;;;6.25;;
36441;SDS011;22470;50.824;16.284;2022-07-30T14:33:38;9.20;;;5.85;;
36441;SDS011;22470;50.824;16.284;2022-07-30T14:36:05;11.30;;;5.63;;
36441;SDS011;22470;50.824;16.284;2022-07-30T14:38:32;7.20;;;4.60;;
36441;SDS011;22470;50.824;16.284;2022-07-30T14:40:59;7.50;;;3.92;;
36441;SDS011;22470;50.824;16.284;2022-07-30T14:43:27;6.68;;;4.00;;
36441;SDS011;22470;50.824;16.284;2022-07-30T14:45:54;6.47;;;3.53;;
36441;SDS011;22470;50.824;16.284;2022-07-30T14:48:21;6.45;;;3.55;;
36441;SDS011;22470;50.824;16.284;2022-07-30T14:50:48;4.20;;;2.88;;
36441;SDS011;22470;50.824;16.284;2022-07-30T14:53:36;7.90;;;3.03;;
36441;SDS011;22470;50.824;16.284;2022-07-30T14:56:04;6.63;;;2.63;;
36441;SDS011;22470;50.824;16.284;2022-07-30T14:58:31;4.50;;;2.47;;
36441;SDS011;22470;50.824;16.284;2022-07-30T15:01:00;11.45;;;6.35;;
36441;SDS011;22470;50.824;16.284;2022-07-30T15:03:41;5.70;;;2.70;;
36441;SDS011;22470;50.824;16.284;2022-07-30T15:06:09;4.88;;;2.60;;
36441;SDS011;22470;50.824;16.284;2022-07-30T15:08:36;3.97;;;2.40;;
36441;SDS011;22470;50.824;16.284;2022-07-30T15:11:04;6.60;;;2.90;;
36441;SDS011;22470;50.824;16.284;2022-07-30T15:13:33;3.58;;;2.38;;
36441;SDS011;22470;50.824;16.284;2022-07-30T15:16:01;4.18;;;1.95;;
36441;SDS011;22470;50.824;16.284;2022-07-30T15:18:28;4.60;;;1.70;;
36441;SDS011;22470;50.824;16.284;2022-07-30T15:20:56;3.45;;;1.60;;
36441;SDS011;22470;50.824;16.284;2022-07-30T15:23:24;4.35;;;1.90;;